sensor_id;sensor_type;location;lat;lon;timestamp;temperature;humidity
2327;DHT22;1174;51.588;7.328;2024-03-02T00:00:49;9.00;99.90
2327;DHT22;1174;51.588;7.328;2024-03-02T00:03:16;9.00;99.90
2327;DHT22;1174;51.588;7.328;2024-03-02T00:05:44;8.90;99.90
2327;DHT22;1174;51.588;7.328;2024-03-02T00:08:22;9.00;99.90
2327;DHT22;1174;51.588;7.328;2024-03-02T00:10:49;8.90;99.90
2327;DHT22;1174;51.588;7.328;2024-03-02T00:13:16;8.90;99.90
2327;DHT22;1174;51.588;7.328;2024-03-02T00:15:50;9.00;99.90
2327;DHT22;1174;51.588;7.328;2024-03-02T00:18:20;8.90;99.90
2327;DHT22;1174;51.588;7.328;2024-03-02T00:20:48;9.10;99.90
2327;DHT22;1174;51.588;7.328;2024-03-02T00:23:16;9.00;99.90
2327;DHT22;1174;51.588;7.328;2024-03-02T00:25:44;9.00;99.90
2327;DHT22;1174;51.588;7.328;2024-03-02T00:28:16;9.00;99.90
2327;DHT22;1174;51.588;7.328;2024-03-02T00:30:55;8.90;99.90
2327;DHT22;1174;51.588;7.328;2024-03-02T00:33:23;8.90;99.90
2327;DHT22;1174;51.588;7.328;2024-03-02T00:35:52;8.90;99.90
2327;DHT22;1174;51.588;7.328;2024-03-02T00:38:19;8.90;99.90
2327;DHT22;1174;51.588;7.328;2024-03-02T00:40:46;8.90;99.90
2327;DHT22;1174;51.588;7.328;2024-03-02T00:43:43;8.80;99.90
2327;DHT22;1174;51.588;7.328;2024-03-02T00:46:12;8.80;99.90
2327;DHT22;1174;51.588;7.328;2024-03-02T00:48:56;8.80;99.90
2327;DHT22;1174;51.588;7.328;2024-03-02T00:51:25;8.80;99.90
2327;DHT22;1174;51.588;7.328;2024-03-02T00:53:52;8.90;99.90
2327;DHT22;1174;51.588;7.328;2024-03-02T00:56:21;8.90;99.90
2327;DHT22;1174;51.588;7.328;2024-03-02T00:58:49;9.00;99.90
2327;DHT22;1174;51.588;7.328;2024-03-02T01:01:15;9.00;99.90
2327;DHT22;1174;51.588;7.328;2024-03-02T01:03:42;9.00;99.90
2327;DHT22;1174;51.588;7.328;2024-03-02T01:06:09;8.90;99.90
2327;DHT22;1174;51.588;7.328;2024-03-02T01:08:37;8.90;99.90
2327;DHT22;1174;51.588;7.328;2024-03-02T01:11:04;8.90;99.90
2327;DHT22;1174;51.588;7.328;2024-03-02T01:13:31;8.90;99.90
2327;DHT22;1174;51.588;7.328;2024-03-02T01:15:58;8.90;99.90
2327;DHT22;1174;51.588;7.328;2024-03-02T01:18:25;8.80;99.90
2327;DHT22;1174;51.588;7.328;2024-03-02T01:20:52;8.80;99.90
2327;DHT22;1174;51.588;7.328;2024-03-02T01:23:21;8.80;99.90
2327;DHT22;1174;51.588;7.328;2024-03-02T01:25:49;8.80;99.90
2327;DHT22;1174;51.588;7.328;2024-03-02T01:28:17;8.90;99.90
2327;DHT22;1174;51.588;7.328;2024-03-02T01:30:44;9.00;99.90
2327;DHT22;1174;51.588;7.328;2024-03-02T01:33:11;9.10;99.90
2327;DHT22;1174;51.588;7.328;2024-03-02T01:35:37;9.00;99.90
2327;DHT22;1174;51.588;7.328;2024-03-02T01:38:04;8.90;99.90
2327;DHT22;1174;51.588;7.328;2024-03-02T01:40:33;8.90;99.90
2327;DHT22;1174;51.588;7.328;2024-03-02T01:43:01;8.90;99.90
2327;DHT22;1174;51.588;7.328;2024-03-02T01:45:28;8.90;99.90
2327;DHT22;1174;51.588;7.328;2024-03-02T01:47:55;8.90;99.90
2327;DHT22;1174;51.588;7.328;2024-03-02T01:50:26;9.00;99.90
2327;DHT22;1174;51.588;7.328;2024-03-02T01:52:54;9.10;99.90
2327;DHT22;1174;51.588;7.328;2024-03-02T01:55:20;9.10;99.90
2327;DHT22;1174;51.588;7.328;2024-03-02T01:57:47;9.10;99.90
2327;DHT22;1174;51.588;7.328;2024-03-02T02:00:18;9.00;99.90
2327;DHT22;1174;51.588;7.328;2024-03-02T02:02:44;9.00;99.90
2327;DHT22;1174;51.588;7.328;2024-03-02T02:05:11;8.90;99.90
2327;DHT22;1174;51.588;7.328;2024-03-02T02:07:40;8.90;99.90
2327;DHT22;1174;51.588;7.328;2024-03-02T02:10:07;8.90;99.90
2327;DHT22;1174;51.588;7.328;2024-03-02T02:12:34;8.80;99.90
2327;DHT22;1174;51.588;7.328;2024-03-02T02:15:01;8.80;99.90
2327;DHT22;1174;51.588;7.328;2024-03-02T02:17:30;8.70;99.90
2327;DHT22;1174;51.588;7.328;2024-03-02T02:19:56;8.80;99.90
2327;DHT22;1174;51.588;7.328;2024-03-02T02:22:24;8.80;99.90
2327;DHT22;1174;51.588;7.328;2024-03-02T02:24:51;8.70;99.90
2327;DHT22;1174;51.588;7.328;2024-03-02T02:27:18;8.60;99.90
2327;DHT22;1174;51.588;7.328;2024-03-02T02:29:44;8.60;99.90
2327;DHT22;1174;51.588;7.328;2024-03-02T02:32:11;8.70;99.90
2327;DHT22;1174;51.588;7.328;2024-03-02T02:34:38;8.80;99.90
2327;DHT22;1174;51.588;7.328;2024-03-02T02:37:05;8.70;99.90
2327;DHT22;1174;51.588;7.328;2024-03-02T02:39:33;8.60;99.90
2327;DHT22;1174;51.588;7.328;2024-03-02T02:42:00;8.60;99.90
2327;DHT22;1174;51.588;7.328;2024-03-02T02:44:28;8.50;99.90
2327;DHT22;1174;51.588;7.328;2024-03-02T02:46:55;8.60;99.90
2327;DHT22;1174;51.588;7.328;2024-03-02T02:49:21;8.60;99.90
2327;DHT22;1174;51.588;7.328;2024-03-02T02:51:48;8.60;99.90
2327;DHT22;1174;51.588;7.328;2024-03-02T02:54:15;8.90;99.90
2327;DHT22;1174;51.588;7.328;2024-03-02T02:56:43;9.00;99.90
2327;DHT22;1174;51.588;7.328;2024-03-02T02:59:09;9.00;99.90
2327;DHT22;1174;51.588;7.328;2024-03-02T03:01:36;9.00;99.90
2327;DHT22;1174;51.588;7.328;2024-03-02T03:04:03;9.30;99.90
2327;DHT22;1174;51.588;7.328;2024-03-02T03:06:30;9.40;99.90
2327;DHT22;1174;51.588;7.328;2024-03-02T03:08:57;9.30;99.90
2327;DHT22;1174;51.588;7.328;2024-03-02T03:11:23;9.20;99.90
2327;DHT22;1174;51.588;7.328;2024-03-02T03:13:53;9.30;99.90
2327;DHT22;1174;51.588;7.328;2024-03-02T03:16:20;9.40;99.90
2327;DHT22;1174;51.588;7.328;2024-03-02T03:18:47;9.40;99.90
2327;DHT22;1174;51.588;7.328;2024-03-02T03:21:16;9.40;99.90
2327;DHT22;1174;51.588;7.328;2024-03-02T03:23:43;9.50;99.90
2327;DHT22;1174;51.588;7.328;2024-03-02T03:26:10;9.50;99.90
2327;DHT22;1174;51.588;7.328;2024-03-02T03:28:37;9.40;99.90
2327;DHT22;1174;51.588;7.328;2024-03-02T03:31:05;9.50;99.90
2327;DHT22;1174;51.588;7.328;2024-03-02T03:33:32;9.40;99.90
2327;DHT22;1174;51.588;7.328;2024-03-02T03:35:59;9.50;99.90
2327;DHT22;1174;51.588;7.328;2024-03-02T03:38:27;9.50;99.90
2327;DHT22;1174;51.588;7.328;2024-03-02T03:40:54;9.50;99.90
2327;DHT22;1174;51.588;7.328;2024-03-02T03:43:20;9.40;99.90
2327;DHT22;1174;51.588;7.328;2024-03-02T03:45:47;9.40;99.90
2327;DHT22;1174;51.588;7.328;2024-03-02T03:48:15;9.60;99.90
2327;DHT22;1174;51.588;7.328;2024-03-02T03:50:42;9.60;99.90
2327;DHT22;1174;51.588;7.328;2024-03-02T03:53:09;9.50;99.90
2327;DHT22;1174;51.588;7.328;2024-03-02T03:55:35;9.50;99.90
2327;DHT22;1174;51.588;7.328;2024-03-02T03:58:02;9.40;99.90
2327;DHT22;1174;51.588;7.328;2024-03-02T04:00:29;9.50;99.90
2327;DHT22;1174;51.588;7.328;2024-03-02T04:02:56;9.50;99.90
2327;DHT22;1174;51.588;7.328;2024-03-02T04:05:24;9.60;99.90
2327;DHT22;1174;51.588;7.328;2024-03-02T04:07:50;9.40;99.90
2327;DHT22;1174;51.588;7.328;2024-03-02T04:10:17;9.30;99.90
2327;DHT22;1174;51.588;7.328;2024-03-02T04:12:46;9.30;99.90
2327;DHT22;1174;51.588;7.328;2024-03-02T04:15:13;9.30;99.90
2327;DHT22;1174;51.588;7.328;2024-03-02T04:17:39;9.40;99.90
2327;DHT22;1174;51.588;7.328;2024-03-02T04:20:07;9.30;99.90
2327;DHT22;1174;51.588;7.328;2024-03-02T04:22:35;9.20;99.90
2327;DHT22;1174;51.588;7.328;2024-03-02T04:25:02;9.30;99.90
2327;DHT22;1174;51.588;7.328;2024-03-02T04:27:30;9.20;99.90
2327;DHT22;1174;51.588;7.328;2024-03-02T04:29:57;9.20;99.90
2327;DHT22;1174;51.588;7.328;2024-03-02T04:32:25;9.30;99.90
2327;DHT22;1174;51.588;7.328;2024-03-02T04:34:52;9.40;99.90
2327;DHT22;1174;51.588;7.328;2024-03-02T04:37:20;9.50;99.90
2327;DHT22;1174;51.588;7.328;2024-03-02T04:39:48;9.50;99.90
2327;DHT22;1174;51.588;7.328;2024-03-02T04:42:15;9.30;99.90
2327;DHT22;1174;51.588;7.328;2024-03-02T04:44:42;9.30;99.90
2327;DHT22;1174;51.588;7.328;2024-03-02T04:47:08;9.30;99.90
2327;DHT22;1174;51.588;7.328;2024-03-02T04:49:35;9.20;99.90
2327;DHT22;1174;51.588;7.328;2024-03-02T04:52:02;9.20;99.90
2327;DHT22;1174;51.588;7.328;2024-03-02T04:54:29;9.20;99.90
2327;DHT22;1174;51.588;7.328;2024-03-02T04:56:57;9.30;99.90
2327;DHT22;1174;51.588;7.328;2024-03-02T04:59:24;9.10;99.90
2327;DHT22;1174;51.588;7.328;2024-03-02T05:01:50;9.20;99.90
2327;DHT22;1174;51.588;7.328;2024-03-02T05:04:17;9.20;99.90
2327;DHT22;1174;51.588;7.328;2024-03-02T05:06:44;9.10;99.90
2327;DHT22;1174;51.588;7.328;2024-03-02T05:09:17;9.00;99.90
2327;DHT22;1174;51.588;7.328;2024-03-02T05:11:44;9.00;99.90
2327;DHT22;1174;51.588;7.328;2024-03-02T05:14:37;9.00;99.90
2327;DHT22;1174;51.588;7.328;2024-03-02T05:17:03;8.90;99.90
2327;DHT22;1174;51.588;7.328;2024-03-02T05:19:30;8.80;99.90
2327;DHT22;1174;51.588;7.328;2024-03-02T05:21:56;8.70;99.90
2327;DHT22;1174;51.588;7.328;2024-03-02T05:24:23;8.70;99.90
2327;DHT22;1174;51.588;7.328;2024-03-02T05:26:53;8.70;99.90
2327;DHT22;1174;51.588;7.328;2024-03-02T05:29:19;8.60;99.90
2327;DHT22;1174;51.588;7.328;2024-03-02T05:31:48;8.60;99.90
2327;DHT22;1174;51.588;7.328;2024-03-02T05:34:15;8.50;99.90
2327;DHT22;1174;51.588;7.328;2024-03-02T05:36:41;8.50;99.90
2327;DHT22;1174;51.588;7.328;2024-03-02T05:39:08;8.50;99.90
2327;DHT22;1174;51.588;7.328;2024-03-02T05:41:36;8.50;99.90
2327;DHT22;1174;51.588;7.328;2024-03-02T05:44:03;8.40;99.90
2327;DHT22;1174;51.588;7.328;2024-03-02T05:46:30;8.40;99.90
2327;DHT22;1174;51.588;7.328;2024-03-02T05:48:58;8.40;99.90
2327;DHT22;1174;51.588;7.328;2024-03-02T05:51:25;8.30;99.90
2327;DHT22;1174;51.588;7.328;2024-03-02T05:53:52;8.30;99.90
2327;DHT22;1174;51.588;7.328;2024-03-02T05:56:18;8.40;99.90
2327;DHT22;1174;51.588;7.328;2024-03-02T05:58:45;8.40;99.90
2327;DHT22;1174;51.588;7.328;2024-03-02T06:01:23;8.40;99.90
2327;DHT22;1174;51.588;7.328;2024-03-02T06:03:54;8.30;99.90
2327;DHT22;1174;51.588;7.328;2024-03-02T06:06:22;8.20;99.90
2327;DHT22;1174;51.588;7.328;2024-03-02T06:08:49;8.30;99.90
2327;DHT22;1174;51.588;7.328;2024-03-02T06:11:15;8.30;99.90
2327;DHT22;1174;51.588;7.328;2024-03-02T06:13:42;8.30;99.90
2327;DHT22;1174;51.588;7.328;2024-03-02T06:16:10;8.40;99.90
2327;DHT22;1174;51.588;7.328;2024-03-02T06:18:37;8.50;99.90
2327;DHT22;1174;51.588;7.328;2024-03-02T06:21:04;8.50;99.90
2327;DHT22;1174;51.588;7.328;2024-03-02T06:23:33;8.50;99.90
2327;DHT22;1174;51.588;7.328;2024-03-02T06:26:00;8.40;99.90
2327;DHT22;1174;51.588;7.328;2024-03-02T06:28:27;8.40;99.90
2327;DHT22;1174;51.588;7.328;2024-03-02T06:30:54;8.40;99.90
2327;DHT22;1174;51.588;7.328;2024-03-02T06:33:21;8.40;99.90
2327;DHT22;1174;51.588;7.328;2024-03-02T06:35:48;8.40;99.90
2327;DHT22;1174;51.588;7.328;2024-03-02T06:38:15;8.50;99.90
2327;DHT22;1174;51.588;7.328;2024-03-02T06:40:43;8.50;99.90
2327;DHT22;1174;51.588;7.328;2024-03-02T06:43:10;8.40;99.90
2327;DHT22;1174;51.588;7.328;2024-03-02T06:45:37;8.50;99.90
2327;DHT22;1174;51.588;7.328;2024-03-02T06:48:04;8.70;99.90
2327;DHT22;1174;51.588;7.328;2024-03-02T06:50:31;8.80;99.90
2327;DHT22;1174;51.588;7.328;2024-03-02T06:52:58;8.70;99.90
2327;DHT22;1174;51.588;7.328;2024-03-02T06:55:25;8.80;99.90
2327;DHT22;1174;51.588;7.328;2024-03-02T06:57:53;8.80;99.90
2327;DHT22;1174;51.588;7.328;2024-03-02T07:00:20;8.90;99.90
2327;DHT22;1174;51.588;7.328;2024-03-02T07:02:49;9.00;99.90
2327;DHT22;1174;51.588;7.328;2024-03-02T07:05:16;9.20;99.90
2327;DHT22;1174;51.588;7.328;2024-03-02T07:07:43;9.20;99.90
2327;DHT22;1174;51.588;7.328;2024-03-02T07:10:09;9.40;99.90
2327;DHT22;1174;51.588;7.328;2024-03-02T07:12:36;9.60;99.90
2327;DHT22;1174;51.588;7.328;2024-03-02T07:15:05;9.60;99.90
2327;DHT22;1174;51.588;7.328;2024-03-02T07:17:54;9.60;99.90
2327;DHT22;1174;51.588;7.328;2024-03-02T07:20:22;9.70;99.90
2327;DHT22;1174;51.588;7.328;2024-03-02T07:22:49;9.70;99.90
2327;DHT22;1174;51.588;7.328;2024-03-02T07:25:15;9.60;99.90
2327;DHT22;1174;51.588;7.328;2024-03-02T07:27:42;9.60;99.90
2327;DHT22;1174;51.588;7.328;2024-03-02T07:30:14;9.60;99.90
2327;DHT22;1174;51.588;7.328;2024-03-02T07:32:41;9.80;99.90
2327;DHT22;1174;51.588;7.328;2024-03-02T07:35:11;9.80;99.90
2327;DHT22;1174;51.588;7.328;2024-03-02T07:37:38;9.70;99.90
2327;DHT22;1174;51.588;7.328;2024-03-02T07:40:06;9.90;99.90
2327;DHT22;1174;51.588;7.328;2024-03-02T07:42:36;9.90;99.90
2327;DHT22;1174;51.588;7.328;2024-03-02T07:45:04;10.00;99.90
2327;DHT22;1174;51.588;7.328;2024-03-02T07:47:32;10.10;99.90
2327;DHT22;1174;51.588;7.328;2024-03-02T07:49:59;10.20;99.90
2327;DHT22;1174;51.588;7.328;2024-03-02T07:52:25;10.20;99.90
2327;DHT22;1174;51.588;7.328;2024-03-02T07:54:52;10.20;99.90
2327;DHT22;1174;51.588;7.328;2024-03-02T07:57:19;10.50;99.90
2327;DHT22;1174;51.588;7.328;2024-03-02T07:59:46;11.00;99.90
2327;DHT22;1174;51.588;7.328;2024-03-02T08:02:13;11.40;99.90
2327;DHT22;1174;51.588;7.328;2024-03-02T08:04:41;11.90;99.90
2327;DHT22;1174;51.588;7.328;2024-03-02T08:07:08;11.80;99.90
2327;DHT22;1174;51.588;7.328;2024-03-02T08:09:35;11.70;99.90
2327;DHT22;1174;51.588;7.328;2024-03-02T08:12:02;12.00;99.90
2327;DHT22;1174;51.588;7.328;2024-03-02T08:14:29;12.30;99.90
2327;DHT22;1174;51.588;7.328;2024-03-02T08:16:56;12.50;99.90
2327;DHT22;1174;51.588;7.328;2024-03-02T08:19:23;12.80;99.90
2327;DHT22;1174;51.588;7.328;2024-03-02T08:21:51;13.20;99.90
2327;DHT22;1174;51.588;7.328;2024-03-02T08:24:18;13.60;99.90
2327;DHT22;1174;51.588;7.328;2024-03-02T08:26:45;13.80;99.90
2327;DHT22;1174;51.588;7.328;2024-03-02T08:29:12;14.20;99.90
2327;DHT22;1174;51.588;7.328;2024-03-02T08:31:40;14.70;99.90
2327;DHT22;1174;51.588;7.328;2024-03-02T08:34:06;15.20;99.90
2327;DHT22;1174;51.588;7.328;2024-03-02T08:36:35;15.90;99.90
2327;DHT22;1174;51.588;7.328;2024-03-02T08:39:03;16.60;99.90
2327;DHT22;1174;51.588;7.328;2024-03-02T08:41:33;17.20;99.90
2327;DHT22;1174;51.588;7.328;2024-03-02T08:43:59;17.40;99.90
2327;DHT22;1174;51.588;7.328;2024-03-02T08:46:27;16.60;99.90
2327;DHT22;1174;51.588;7.328;2024-03-02T08:48:54;15.70;99.90
2327;DHT22;1174;51.588;7.328;2024-03-02T08:51:20;15.40;99.90
2327;DHT22;1174;51.588;7.328;2024-03-02T08:53:47;14.80;99.90
2327;DHT22;1174;51.588;7.328;2024-03-02T08:56:15;14.80;99.90
2327;DHT22;1174;51.588;7.328;2024-03-02T08:58:43;14.70;99.90
2327;DHT22;1174;51.588;7.328;2024-03-02T09:01:10;15.20;99.90
2327;DHT22;1174;51.588;7.328;2024-03-02T09:03:37;14.90;99.90
2327;DHT22;1174;51.588;7.328;2024-03-02T09:06:04;15.20;99.90
2327;DHT22;1174;51.588;7.328;2024-03-02T09:08:31;15.70;99.90
2327;DHT22;1174;51.588;7.328;2024-03-02T09:10:58;16.40;99.90
2327;DHT22;1174;51.588;7.328;2024-03-02T09:13:26;16.70;99.90
2327;DHT22;1174;51.588;7.328;2024-03-02T09:15:52;17.10;99.90
2327;DHT22;1174;51.588;7.328;2024-03-02T09:18:19;17.00;99.90
2327;DHT22;1174;51.588;7.328;2024-03-02T09:20:46;16.60;99.90
2327;DHT22;1174;51.588;7.328;2024-03-02T09:23:13;17.10;99.90
2327;DHT22;1174;51.588;7.328;2024-03-02T09:25:39;17.90;99.90
2327;DHT22;1174;51.588;7.328;2024-03-02T09:28:06;18.50;99.90
2327;DHT22;1174;51.588;7.328;2024-03-02T09:30:35;19.40;99.90
2327;DHT22;1174;51.588;7.328;2024-03-02T09:33:01;19.70;99.90
2327;DHT22;1174;51.588;7.328;2024-03-02T09:35:28;19.90;98.30
2327;DHT22;1174;51.588;7.328;2024-03-02T09:37:55;19.60;98.00
2327;DHT22;1174;51.588;7.328;2024-03-02T09:40:22;19.20;97.90
2327;DHT22;1174;51.588;7.328;2024-03-02T09:42:49;18.60;97.90
2327;DHT22;1174;51.588;7.328;2024-03-02T09:45:19;18.40;98.40
2327;DHT22;1174;51.588;7.328;2024-03-02T09:47:50;18.90;98.80
2327;DHT22;1174;51.588;7.328;2024-03-02T09:50:17;19.40;98.50
2327;DHT22;1174;51.588;7.328;2024-03-02T09:52:44;19.80;97.10
2327;DHT22;1174;51.588;7.328;2024-03-02T09:55:15;19.90;97.50
2327;DHT22;1174;51.588;7.328;2024-03-02T09:57:42;20.50;95.10
2327;DHT22;1174;51.588;7.328;2024-03-02T10:00:10;19.40;95.00
2327;DHT22;1174;51.588;7.328;2024-03-02T10:02:40;18.90;96.20
2327;DHT22;1174;51.588;7.328;2024-03-02T10:05:08;19.30;95.70
2327;DHT22;1174;51.588;7.328;2024-03-02T10:07:35;19.70;94.30
2327;DHT22;1174;51.588;7.328;2024-03-02T10:10:13;19.60;94.50
2327;DHT22;1174;51.588;7.328;2024-03-02T10:12:40;19.40;94.30
2327;DHT22;1174;51.588;7.328;2024-03-02T10:15:07;19.20;94.50
2327;DHT22;1174;51.588;7.328;2024-03-02T10:17:35;19.70;95.20
2327;DHT22;1174;51.588;7.328;2024-03-02T10:20:24;20.60;93.90
2327;DHT22;1174;51.588;7.328;2024-03-02T10:22:51;20.30;93.90
2327;DHT22;1174;51.588;7.328;2024-03-02T10:25:29;20.70;93.90
2327;DHT22;1174;51.588;7.328;2024-03-02T10:27:57;21.30;92.60
2327;DHT22;1174;51.588;7.328;2024-03-02T10:30:24;21.30;92.70
2327;DHT22;1174;51.588;7.328;2024-03-02T10:32:53;21.80;91.70
2327;DHT22;1174;51.588;7.328;2024-03-02T10:35:20;21.70;91.00
2327;DHT22;1174;51.588;7.328;2024-03-02T10:37:49;20.60;91.20
2327;DHT22;1174;51.588;7.328;2024-03-02T10:40:16;20.10;91.80
2327;DHT22;1174;51.588;7.328;2024-03-02T10:42:45;20.10;91.60
2327;DHT22;1174;51.588;7.328;2024-03-02T10:45:12;20.60;92.40
2327;DHT22;1174;51.588;7.328;2024-03-02T10:47:39;21.60;91.10
2327;DHT22;1174;51.588;7.328;2024-03-02T10:50:07;21.70;90.90
2327;DHT22;1174;51.588;7.328;2024-03-02T10:52:34;22.10;90.10
2327;DHT22;1174;51.588;7.328;2024-03-02T10:55:03;22.30;89.80
2327;DHT22;1174;51.588;7.328;2024-03-02T10:57:36;22.50;88.40
2327;DHT22;1174;51.588;7.328;2024-03-02T11:00:08;21.10;88.40
2327;DHT22;1174;51.588;7.328;2024-03-02T11:02:41;21.40;89.30
2327;DHT22;1174;51.588;7.328;2024-03-02T11:05:11;22.60;88.80
2327;DHT22;1174;51.588;7.328;2024-03-02T11:07:39;23.00;85.30
2327;DHT22;1174;51.588;7.328;2024-03-02T11:10:08;22.60;85.80
2327;DHT22;1174;51.588;7.328;2024-03-02T11:12:38;22.30;85.80
2327;DHT22;1174;51.588;7.328;2024-03-02T11:15:10;22.70;85.10
2327;DHT22;1174;51.588;7.328;2024-03-02T11:17:38;23.10;86.10
2327;DHT22;1174;51.588;7.328;2024-03-02T11:20:07;23.90;81.40
2327;DHT22;1174;51.588;7.328;2024-03-02T11:22:36;23.70;80.60
2327;DHT22;1174;51.588;7.328;2024-03-02T11:25:04;23.30;80.20
2327;DHT22;1174;51.588;7.328;2024-03-02T11:28:00;23.10;80.80
2327;DHT22;1174;51.588;7.328;2024-03-02T11:30:51;23.90;79.10
2327;DHT22;1174;51.588;7.328;2024-03-02T11:33:27;24.60;77.10
2327;DHT22;1174;51.588;7.328;2024-03-02T11:35:56;24.20;74.10
2327;DHT22;1174;51.588;7.328;2024-03-02T11:38:31;23.90;77.30
2327;DHT22;1174;51.588;7.328;2024-03-02T11:41:00;25.00;75.70
2327;DHT22;1174;51.588;7.328;2024-03-02T11:43:29;25.60;73.70
2327;DHT22;1174;51.588;7.328;2024-03-02T11:46:00;25.30;73.20
2327;DHT22;1174;51.588;7.328;2024-03-02T11:48:30;25.80;70.50
2327;DHT22;1174;51.588;7.328;2024-03-02T11:50:58;24.30;68.20
2327;DHT22;1174;51.588;7.328;2024-03-02T11:53:26;23.90;69.00
2327;DHT22;1174;51.588;7.328;2024-03-02T11:55:55;24.10;70.40
2327;DHT22;1174;51.588;7.328;2024-03-02T11:58:22;24.80;70.60
2327;DHT22;1174;51.588;7.328;2024-03-02T12:00:53;25.10;67.30
2327;DHT22;1174;51.588;7.328;2024-03-02T12:03:22;25.10;69.20
2327;DHT22;1174;51.588;7.328;2024-03-02T12:05:51;25.30;69.20
2327;DHT22;1174;51.588;7.328;2024-03-02T12:08:18;26.40;67.90
2327;DHT22;1174;51.588;7.328;2024-03-02T12:10:56;25.70;67.10
2327;DHT22;1174;51.588;7.328;2024-03-02T12:13:23;24.80;66.10
2327;DHT22;1174;51.588;7.328;2024-03-02T12:15:54;24.40;67.20
2327;DHT22;1174;51.588;7.328;2024-03-02T12:18:22;24.80;66.50
2327;DHT22;1174;51.588;7.328;2024-03-02T12:20:50;23.40;66.90
2327;DHT22;1174;51.588;7.328;2024-03-02T12:23:18;22.10;69.70
2327;DHT22;1174;51.588;7.328;2024-03-02T12:25:45;22.10;71.10
2327;DHT22;1174;51.588;7.328;2024-03-02T12:28:12;21.90;72.20
2327;DHT22;1174;51.588;7.328;2024-03-02T12:30:39;21.90;73.10
2327;DHT22;1174;51.588;7.328;2024-03-02T12:33:07;22.50;73.70
2327;DHT22;1174;51.588;7.328;2024-03-02T12:35:36;23.30;73.20
2327;DHT22;1174;51.588;7.328;2024-03-02T12:38:03;22.60;71.50
2327;DHT22;1174;51.588;7.328;2024-03-02T12:40:30;21.40;73.20
2327;DHT22;1174;51.588;7.328;2024-03-02T12:42:57;20.40;75.20
2327;DHT22;1174;51.588;7.328;2024-03-02T12:45:24;19.90;77.60
2327;DHT22;1174;51.588;7.328;2024-03-02T12:47:51;19.60;79.70
2327;DHT22;1174;51.588;7.328;2024-03-02T12:50:20;19.20;80.40
2327;DHT22;1174;51.588;7.328;2024-03-02T12:52:51;19.10;81.50
2327;DHT22;1174;51.588;7.328;2024-03-02T12:55:20;20.10;82.50
2327;DHT22;1174;51.588;7.328;2024-03-02T12:57:49;21.10;81.60
2327;DHT22;1174;51.588;7.328;2024-03-02T13:00:18;22.00;77.40
2327;DHT22;1174;51.588;7.328;2024-03-02T13:02:46;21.40;77.20
2327;DHT22;1174;51.588;7.328;2024-03-02T13:05:13;21.20;77.70
2327;DHT22;1174;51.588;7.328;2024-03-02T13:07:41;20.50;80.00
2327;DHT22;1174;51.588;7.328;2024-03-02T13:10:08;21.00;79.80
2327;DHT22;1174;51.588;7.328;2024-03-02T13:12:35;20.90;79.50
2327;DHT22;1174;51.588;7.328;2024-03-02T13:15:03;20.30;79.10
2327;DHT22;1174;51.588;7.328;2024-03-02T13:17:30;19.80;80.40
2327;DHT22;1174;51.588;7.328;2024-03-02T13:19:59;19.10;82.10
2327;DHT22;1174;51.588;7.328;2024-03-02T13:22:26;19.00;83.40
2327;DHT22;1174;51.588;7.328;2024-03-02T13:24:54;18.40;83.60
2327;DHT22;1174;51.588;7.328;2024-03-02T13:27:21;18.30;85.10
2327;DHT22;1174;51.588;7.328;2024-03-02T13:29:48;18.10;86.20
2327;DHT22;1174;51.588;7.328;2024-03-02T13:32:15;18.70;86.30
2327;DHT22;1174;51.588;7.328;2024-03-02T13:34:42;19.40;85.10
2327;DHT22;1174;51.588;7.328;2024-03-02T13:37:09;19.90;84.40
2327;DHT22;1174;51.588;7.328;2024-03-02T13:39:36;19.90;83.60
2327;DHT22;1174;51.588;7.328;2024-03-02T13:42:08;20.00;82.70
2327;DHT22;1174;51.588;7.328;2024-03-02T13:44:35;19.20;84.20
2327;DHT22;1174;51.588;7.328;2024-03-02T13:47:02;19.20;84.50
2327;DHT22;1174;51.588;7.328;2024-03-02T13:49:29;19.00;85.40
2327;DHT22;1174;51.588;7.328;2024-03-02T13:52:02;18.50;86.60
2327;DHT22;1174;51.588;7.328;2024-03-02T13:54:37;18.50;85.40
2327;DHT22;1174;51.588;7.328;2024-03-02T13:57:04;18.30;86.20
2327;DHT22;1174;51.588;7.328;2024-03-02T13:59:32;18.20;87.40
2327;DHT22;1174;51.588;7.328;2024-03-02T14:02:00;18.00;88.00
2327;DHT22;1174;51.588;7.328;2024-03-02T14:04:26;18.20;88.20
2327;DHT22;1174;51.588;7.328;2024-03-02T14:06:53;18.40;87.40
2327;DHT22;1174;51.588;7.328;2024-03-02T14:09:22;18.40;88.50
2327;DHT22;1174;51.588;7.328;2024-03-02T14:11:49;18.30;87.40
2327;DHT22;1174;51.588;7.328;2024-03-02T14:14:16;18.20;87.00
2327;DHT22;1174;51.588;7.328;2024-03-02T14:16:45;18.10;89.10
2327;DHT22;1174;51.588;7.328;2024-03-02T14:19:12;18.30;87.90
2327;DHT22;1174;51.588;7.328;2024-03-02T14:21:39;17.90;87.40
2327;DHT22;1174;51.588;7.328;2024-03-02T14:24:05;17.60;89.10
2327;DHT22;1174;51.588;7.328;2024-03-02T14:26:33;17.40;89.10
2327;DHT22;1174;51.588;7.328;2024-03-02T14:29:00;17.40;88.20
2327;DHT22;1174;51.588;7.328;2024-03-02T14:31:27;17.30;89.00
2327;DHT22;1174;51.588;7.328;2024-03-02T14:33:55;17.20;88.70
2327;DHT22;1174;51.588;7.328;2024-03-02T14:36:22;17.30;88.90
2327;DHT22;1174;51.588;7.328;2024-03-02T14:38:49;17.10;88.50
2327;DHT22;1174;51.588;7.328;2024-03-02T14:41:16;17.30;89.40
2327;DHT22;1174;51.588;7.328;2024-03-02T14:43:43;17.10;89.80
2327;DHT22;1174;51.588;7.328;2024-03-02T14:46:10;17.20;89.80
2327;DHT22;1174;51.588;7.328;2024-03-02T14:48:38;17.10;90.30
2327;DHT22;1174;51.588;7.328;2024-03-02T14:51:06;17.00;90.20
2327;DHT22;1174;51.588;7.328;2024-03-02T14:53:33;16.90;91.00
2327;DHT22;1174;51.588;7.328;2024-03-02T14:56:00;16.80;91.00
2327;DHT22;1174;51.588;7.328;2024-03-02T14:58:27;16.50;90.70
2327;DHT22;1174;51.588;7.328;2024-03-02T15:00:54;16.40;91.30
2327;DHT22;1174;51.588;7.328;2024-03-02T15:03:21;16.30;91.80
2327;DHT22;1174;51.588;7.328;2024-03-02T15:05:48;16.40;92.10
2327;DHT22;1174;51.588;7.328;2024-03-02T15:08:18;16.20;92.30
2327;DHT22;1174;51.588;7.328;2024-03-02T15:10:45;16.10;92.70
2327;DHT22;1174;51.588;7.328;2024-03-02T15:13:12;16.10;93.10
2327;DHT22;1174;51.588;7.328;2024-03-02T15:15:39;16.00;93.50
2327;DHT22;1174;51.588;7.328;2024-03-02T15:18:06;16.00;93.70
2327;DHT22;1174;51.588;7.328;2024-03-02T15:20:33;16.10;94.00
2327;DHT22;1174;51.588;7.328;2024-03-02T15:23:00;15.90;93.80
2327;DHT22;1174;51.588;7.328;2024-03-02T15:25:28;15.80;94.40
2327;DHT22;1174;51.588;7.328;2024-03-02T15:27:55;15.90;94.50
2327;DHT22;1174;51.588;7.328;2024-03-02T15:30:22;16.00;95.00
2327;DHT22;1174;51.588;7.328;2024-03-02T15:32:49;16.00;94.80
2327;DHT22;1174;51.588;7.328;2024-03-02T15:35:16;16.00;94.70
2327;DHT22;1174;51.588;7.328;2024-03-02T15:37:43;15.80;95.10
2327;DHT22;1174;51.588;7.328;2024-03-02T15:40:10;15.80;95.10
2327;DHT22;1174;51.588;7.328;2024-03-02T15:42:38;15.80;95.80
2327;DHT22;1174;51.588;7.328;2024-03-02T15:45:06;15.90;95.40
2327;DHT22;1174;51.588;7.328;2024-03-02T15:47:33;15.90;95.60
2327;DHT22;1174;51.588;7.328;2024-03-02T15:50:01;15.80;95.40
2327;DHT22;1174;51.588;7.328;2024-03-02T15:52:29;15.80;95.50
2327;DHT22;1174;51.588;7.328;2024-03-02T15:54:56;15.90;95.60
2327;DHT22;1174;51.588;7.328;2024-03-02T15:57:23;15.90;95.60
2327;DHT22;1174;51.588;7.328;2024-03-02T15:59:52;15.90;95.80
2327;DHT22;1174;51.588;7.328;2024-03-02T16:02:19;16.00;95.70
2327;DHT22;1174;51.588;7.328;2024-03-02T16:04:45;16.00;95.70
2327;DHT22;1174;51.588;7.328;2024-03-02T16:07:12;16.10;96.10
2327;DHT22;1174;51.588;7.328;2024-03-02T16:09:39;16.20;96.20
2327;DHT22;1174;51.588;7.328;2024-03-02T16:12:06;16.40;95.80
2327;DHT22;1174;51.588;7.328;2024-03-02T16:14:33;16.40;95.80